sensor_id;sensor_type;location;lat;lon;timestamp;temperature;humidity
1297;DHT22;641;48.492;9.184;2023-02-23T08:08:58;10.90;99.90
1297;DHT22;641;48.492;9.184;2023-02-23T08:11:25;11.00;99.90
1297;DHT22;641;48.492;9.184;2023-02-23T08:13:53;11.00;99.90
1297;DHT22;641;48.492;9.184;2023-02-23T08:16:27;11.10;99.90
1297;DHT22;641;48.492;9.184;2023-02-23T08:18:54;11.00;99.90
1297;DHT22;641;48.492;9.184;2023-02-23T08:21:20;11.20;99.90
1297;DHT22;641;48.492;9.184;2023-02-23T08:23:46;11.20;99.90
1297;DHT22;641;48.492;9.184;2023-02-23T08:26:11;11.30;99.90
1297;DHT22;641;48.492;9.184;2023-02-23T08:28:37;11.10;99.90
1297;DHT22;641;48.492;9.184;2023-02-23T08:31:02;11.00;99.90
1297;DHT22;641;48.492;9.184;2023-02-23T08:33:32;11.20;99.90
1297;DHT22;641;48.492;9.184;2023-02-23T08:35:59;11.30;99.90
1297;DHT22;641;48.492;9.184;2023-02-23T08:38:27;11.40;99.90
1297;DHT22;641;48.492;9.184;2023-02-23T08:40:52;11.50;99.90
1297;DHT22;641;48.492;9.184;2023-02-23T08:43:19;11.40;99.90
1297;DHT22;641;48.492;9.184;2023-02-23T08:45:44;11.50;99.90
1297;DHT22;641;48.492;9.184;2023-02-23T08:48:10;11.70;99.90
1297;DHT22;641;48.492;9.184;2023-02-23T08:50:35;11.80;99.90
1297;DHT22;641;48.492;9.184;2023-02-23T08:53:01;11.70;99.90
1297;DHT22;641;48.492;9.184;2023-02-23T08:55:28;11.90;99.90
1297;DHT22;641;48.492;9.184;2023-02-23T08:57:53;11.90;99.90
1297;DHT22;641;48.492;9.184;2023-02-23T09:00:19;12.00;99.90
1297;DHT22;641;48.492;9.184;2023-02-23T09:02:46;12.40;99.90
1297;DHT22;641;48.492;9.184;2023-02-23T09:05:13;11.80;99.90
1297;DHT22;641;48.492;9.184;2023-02-23T09:07:39;11.50;99.90
1297;DHT22;641;48.492;9.184;2023-02-23T09:10:05;11.50;99.90
1297;DHT22;641;48.492;9.184;2023-02-23T09:12:31;11.00;99.90
1297;DHT22;641;48.492;9.184;2023-02-23T09:14:57;10.70;99.90
1297;DHT22;641;48.492;9.184;2023-02-23T09:17:22;10.80;99.90
1297;DHT22;641;48.492;9.184;2023-02-23T09:19:49;11.00;99.90
1297;DHT22;641;48.492;9.184;2023-02-23T09:22:15;11.40;99.90
1297;DHT22;641;48.492;9.184;2023-02-23T09:24:43;11.50;99.90
1297;DHT22;641;48.492;9.184;2023-02-23T09:27:08;11.20;99.90
1297;DHT22;641;48.492;9.184;2023-02-23T09:29:37;11.10;99.90
1297;DHT22;641;48.492;9.184;2023-02-23T09:32:06;10.90;99.90
1297;DHT22;641;48.492;9.184;2023-02-23T09:34:31;11.00;99.90
1297;DHT22;641;48.492;9.184;2023-02-23T09:36:57;11.00;99.90
1297;DHT22;641;48.492;9.184;2023-02-23T09:39:22;10.90;99.90
1297;DHT22;641;48.492;9.184;2023-02-23T09:42:02;11.10;99.90
1297;DHT22;641;48.492;9.184;2023-02-23T09:50:24;11.70;99.90
1297;DHT22;641;48.492;9.184;2023-02-23T09:52:58;11.80;99.90
1297;DHT22;641;48.492;9.184;2023-02-23T09:55:26;11.70;99.90
1297;DHT22;641;48.492;9.184;2023-02-23T09:57:52;12.00;99.90
1297;DHT22;641;48.492;9.184;2023-02-23T10:00:25;11.90;99.90
1297;DHT22;641;48.492;9.184;2023-02-23T10:03:10;12.10;99.90
1297;DHT22;641;48.492;9.184;2023-02-23T10:05:46;12.30;99.90
1297;DHT22;641;48.492;9.184;2023-02-23T10:11:17;12.90;99.90
1297;DHT22;641;48.492;9.184;2023-02-23T10:14:09;12.70;99.90
1297;DHT22;641;48.492;9.184;2023-02-23T10:17:04;12.30;99.90
1297;DHT22;641;48.492;9.184;2023-02-23T10:19:50;12.30;99.90
1297;DHT22;641;48.492;9.184;2023-02-23T10:22:19;12.70;99.90
1297;DHT22;641;48.492;9.184;2023-02-23T10:24:52;12.80;99.90
1297;DHT22;641;48.492;9.184;2023-02-23T10:27:22;12.90;99.90
1297;DHT22;641;48.492;9.184;2023-02-23T10:29:57;13.50;99.90
1297;DHT22;641;48.492;9.184;2023-02-23T10:32:50;13.30;99.90
1297;DHT22;641;48.492;9.184;2023-02-23T10:35:19;13.50;99.90
1297;DHT22;641;48.492;9.184;2023-02-23T10:40:17;13.60;99.90
1297;DHT22;641;48.492;9.184;2023-02-23T10:42:45;13.20;99.90
1297;DHT22;641;48.492;9.184;2023-02-23T10:45:30;13.40;99.90
1297;DHT22;641;48.492;9.184;2023-02-23T10:48:06;12.80;99.90
1297;DHT22;641;48.492;9.184;2023-02-23T10:50:35;12.60;99.90
1297;DHT22;641;48.492;9.184;2023-02-23T10:53:20;12.60;99.90
1297;DHT22;641;48.492;9.184;2023-02-23T10:56:20;12.90;99.90
1297;DHT22;641;48.492;9.184;2023-02-23T10:58:51;13.30;99.90
1297;DHT22;641;48.492;9.184;2023-02-23T11:01:33;13.80;99.90
1297;DHT22;641;48.492;9.184;2023-02-23T11:04:25;13.80;99.90
1297;DHT22;641;48.492;9.184;2023-02-23T11:07:15;13.80;99.90
1297;DHT22;641;48.492;9.184;2023-02-23T11:09:41;13.70;99.90
1297;DHT22;641;48.492;9.184;2023-02-23T11:12:22;14.00;99.90
1297;DHT22;641;48.492;9.184;2023-02-23T11:14:51;14.30;99.90
1297;DHT22;641;48.492;9.184;2023-02-23T11:22:47;14.50;99.90
1297;DHT22;641;48.492;9.184;2023-02-23T11:25:31;14.60;99.90
1297;DHT22;641;48.492;9.184;2023-02-23T11:30:32;15.40;99.90
1297;DHT22;641;48.492;9.184;2023-02-23T11:33:01;15.40;99.90
1297;DHT22;641;48.492;9.184;2023-02-23T11:35:36;15.50;99.90
1297;DHT22;641;48.492;9.184;2023-02-23T11:40:58;15.40;99.90
1297;DHT22;641;48.492;9.184;2023-02-23T11:43:24;15.40;99.90
1297;DHT22;641;48.492;9.184;2023-02-23T11:45:51;14.20;99.90
1297;DHT22;641;48.492;9.184;2023-02-23T11:50:52;14.80;99.90
1297;DHT22;641;48.492;9.184;2023-02-23T11:53:27;15.10;99.90
1297;DHT22;641;48.492;9.184;2023-02-23T11:55:56;15.30;99.90
1297;DHT22;641;48.492;9.184;2023-02-23T11:58:34;15.30;99.90
1297;DHT22;641;48.492;9.184;2023-02-23T12:01:15;15.10;99.90
1297;DHT22;641;48.492;9.184;2023-02-23T12:03:50;15.10;99.90
1297;DHT22;641;48.492;9.184;2023-02-23T12:06:38;15.20;99.90
1297;DHT22;641;48.492;9.184;2023-02-23T12:09:26;15.30;99.90
1297;DHT22;641;48.492;9.184;2023-02-23T12:11:58;15.40;99.90
1297;DHT22;641;48.492;9.184;2023-02-23T12:14:31;15.70;99.90
1297;DHT22;641;48.492;9.184;2023-02-23T12:17:05;15.20;99.90
1297;DHT22;641;48.492;9.184;2023-02-23T12:19:38;15.20;99.90
1297;DHT22;641;48.492;9.184;2023-02-23T12:27:20;15.30;99.90
1297;DHT22;641;48.492;9.184;2023-02-23T12:32:23;15.50;99.90
1297;DHT22;641;48.492;9.184;2023-02-23T12:35:11;15.60;99.90
1297;DHT22;641;48.492;9.184;2023-02-23T12:38:00;15.70;99.90
1297;DHT22;641;48.492;9.184;2023-02-23T12:40:32;15.30;99.90
1297;DHT22;641;48.492;9.184;2023-02-23T12:43:13;14.70;99.90
1297;DHT22;641;48.492;9.184;2023-02-23T12:48:48;15.00;99.90
1297;DHT22;641;48.492;9.184;2023-02-23T12:51:32;15.30;99.90
1297;DHT22;641;48.492;9.184;2023-02-23T12:54:00;15.50;99.90
1297;DHT22;641;48.492;9.184;2023-02-23T13:02:02;14.90;99.90
1297;DHT22;641;48.492;9.184;2023-02-23T13:12:47;14.50;99.90
1297;DHT22;641;48.492;9.184;2023-02-23T13:15:29;14.70;99.90
1297;DHT22;641;48.492;9.184;2023-02-23T13:18:05;14.80;99.90
1297;DHT22;641;48.492;9.184;2023-02-23T13:20:50;14.80;99.90
1297;DHT22;641;48.492;9.184;2023-02-23T13:29:34;14.80;99.90
1297;DHT22;641;48.492;9.184;2023-02-23T13:32:03;14.70;99.90
1297;DHT22;641;48.492;9.184;2023-02-23T13:34:35;14.60;99.90
1297;DHT22;641;48.492;9.184;2023-02-23T13:37:06;14.70;99.90
1297;DHT22;641;48.492;9.184;2023-02-23T13:45:22;14.40;99.90
1297;DHT22;641;48.492;9.184;2023-02-23T13:53:02;14.70;99.90
1297;DHT22;641;48.492;9.184;2023-02-23T13:55:47;14.70;99.90
1297;DHT22;641;48.492;9.184;2023-02-23T13:58:16;14.80;99.90
1297;DHT22;641;48.492;9.184;2023-02-23T14:00:52;14.60;99.90
1297;DHT22;641;48.492;9.184;2023-02-23T14:03:24;14.40;99.90
1297;DHT22;641;48.492;9.184;2023-02-23T14:05:55;14.50;99.90
1297;DHT22;641;48.492;9.184;2023-02-23T14:08:31;14.60;99.90
1297;DHT22;641;48.492;9.184;2023-02-23T14:10:59;14.70;99.90
1297;DHT22;641;48.492;9.184;2023-02-23T14:13:28;14.60;99.90
1297;DHT22;641;48.492;9.184;2023-02-23T14:16:14;14.50;99.90
1297;DHT22;641;48.492;9.184;2023-02-23T14:19:59;14.50;99.90
1297;DHT22;641;48.492;9.184;2023-02-23T14:22:02;15.10;99.90
1297;DHT22;641;48.492;9.184;2023-02-23T14:24:29;15.00;99.90
1297;DHT22;641;48.492;9.184;2023-02-23T14:27:21;14.80;99.90
1297;DHT22;641;48.492;9.184;2023-02-23T14:32:47;14.80;99.90
1297;DHT22;641;48.492;9.184;2023-02-23T14:38:03;14.90;99.90
1297;DHT22;641;48.492;9.184;2023-02-23T14:40:37;14.90;99.90
1297;DHT22;641;48.492;9.184;2023-02-23T14:46:32;14.80;99.90
1297;DHT22;641;48.492;9.184;2023-02-23T14:49:08;15.10;99.90
1297;DHT22;641;48.492;9.184;2023-02-23T14:54:30;15.20;99.90
1297;DHT22;641;48.492;9.184;2023-02-23T14:56:57;15.20;99.90
1297;DHT22;641;48.492;9.184;2023-02-23T14:59:26;15.30;99.90
1297;DHT22;641;48.492;9.184;2023-02-23T15:01:53;15.20;99.90
1297;DHT22;641;48.492;9.184;2023-02-23T15:04:23;15.10;99.90
1297;DHT22;641;48.492;9.184;2023-02-23T15:06:53;15.10;99.90
1297;DHT22;641;48.492;9.184;2023-02-23T15:09:28;15.20;99.90
1297;DHT22;641;48.492;9.184;2023-02-23T15:11:56;15.40;99.90
1297;DHT22;641;48.492;9.184;2023-02-23T15:14:23;15.50;99.90
1297;DHT22;641;48.492;9.184;2023-02-23T15:16:49;15.50;99.90
1297;DHT22;641;48.492;9.184;2023-02-23T15:19:18;15.50;99.90
1297;DHT22;641;48.492;9.184;2023-02-23T15:21:56;15.20;99.90
1297;DHT22;641;48.492;9.184;2023-02-23T15:24:25;15.30;99.90
1297;DHT22;641;48.492;9.184;2023-02-23T15:26:53;15.30;99.90
1297;DHT22;641;48.492;9.184;2023-02-23T15:29:29;15.40;99.90
1297;DHT22;641;48.492;9.184;2023-02-23T15:31:55;15.40;99.90
1297;DHT22;641;48.492;9.184;2023-02-23T15:34:25;15.30;99.90
1297;DHT22;641;48.492;9.184;2023-02-23T15:36:57;15.40;99.90
1297;DHT22;641;48.492;9.184;2023-02-23T15:42:38;15.40;99.90
1297;DHT22;641;48.492;9.184;2023-02-23T15:45:36;15.30;99.90
1297;DHT22;641;48.492;9.184;2023-02-23T15:48:08;15.30;99.90
1297;DHT22;641;48.492;9.184;2023-02-23T15:50:40;15.30;99.90
1297;DHT22;641;48.492;9.184;2023-02-23T15:53:27;15.40;99.90
1297;DHT22;641;48.492;9.184;2023-02-23T15:56:10;15.50;99.90
1297;DHT22;641;48.492;9.184;2023-02-23T15:58:39;15.10;99.90
1297;DHT22;641;48.492;9.184;2023-02-23T16:01:11;15.10;99.90
1297;DHT22;641;48.492;9.184;2023-02-23T16:03:38;14.80;99.90
1297;DHT22;641;48.492;9.184;2023-02-23T16:06:32;14.50;99.90
1297;DHT22;641;48.492;9.184;2023-02-23T16:11:55;14.40;99.90
1297;DHT22;641;48.492;9.184;2023-02-23T16:14:41;14.30;99.90
1297;DHT22;641;48.492;9.184;2023-02-23T16:17:20;14.10;99.90
1297;DHT22;641;48.492;9.184;2023-02-23T16:19:48;13.90;99.90
1297;DHT22;641;48.492;9.184;2023-02-23T16:22:19;14.00;99.90
1297;DHT22;641;48.492;9.184;2023-02-23T16:24:51;13.90;99.90
1297;DHT22;641;48.492;9.184;2023-02-23T16:27:17;13.90;99.90
1297;DHT22;641;48.492;9.184;2023-02-23T16:29:44;13.70;99.90
1297;DHT22;641;48.492;9.184;2023-02-23T16:32:16;13.50;99.90
1297;DHT22;641;48.492;9.184;2023-02-23T16:35:13;13.60;99.90
1297;DHT22;641;48.492;9.184;2023-02-23T16:37:54;13.80;99.90
1297;DHT22;641;48.492;9.184;2023-02-23T16:40:20;13.80;99.90
1297;DHT22;641;48.492;9.184;2023-02-23T16:42:45;13.60;99.90
1297;DHT22;641;48.492;9.184;2023-02-23T16:45:14;13.40;99.90
1297;DHT22;641;48.492;9.184;2023-02-23T16:51:10;13.30;99.90
1297;DHT22;641;48.492;9.184;2023-02-23T16:53:37;13.10;99.90
1297;DHT22;641;48.492;9.184;2023-02-23T16:56:03;13.00;99.90
1297;DHT22;641;48.492;9.184;2023-02-23T16:58:37;13.10;99.90
1297;DHT22;641;48.492;9.184;2023-02-23T17:01:04;13.20;99.90
1297;DHT22;641;48.492;9.184;2023-02-23T17:03:30;13.60;99.90
1297;DHT22;641;48.492;9.184;2023-02-23T17:05:56;13.50;99.90
1297;DHT22;641;48.492;9.184;2023-02-23T17:08:22;13.40;99.90
1297;DHT22;641;48.492;9.184;2023-02-23T17:10:50;13.10;99.90
1297;DHT22;641;48.492;9.184;2023-02-23T17:13:21;13.10;99.90
1297;DHT22;641;48.492;9.184;2023-02-23T17:15:49;12.90;99.90
1297;DHT22;641;48.492;9.184;2023-02-23T17:18:17;12.90;99.90
1297;DHT22;641;48.492;9.184;2023-02-23T17:20:44;12.90;99.90
1297;DHT22;641;48.492;9.184;2023-02-23T17:23:09;13.00;99.90
1297;DHT22;641;48.492;9.184;2023-02-23T17:25:35;12.80;99.90
1297;DHT22;641;48.492;9.184;2023-02-23T17:28:01;12.70;99.90
1297;DHT22;641;48.492;9.184;2023-02-23T17:30:27;13.00;99.90
1297;DHT22;641;48.492;9.184;2023-02-23T17:32:55;12.90;99.90
1297;DHT22;641;48.492;9.184;2023-02-23T17:35:22;12.50;99.90
1297;DHT22;641;48.492;9.184;2023-02-23T17:37:48;12.40;99.90
1297;DHT22;641;48.492;9.184;2023-02-23T17:40:17;12.20;99.90
1297;DHT22;641;48.492;9.184;2023-02-23T17:42:43;12.20;99.90
1297;DHT22;641;48.492;9.184;2023-02-23T17:45:09;12.00;99.90
1297;DHT22;641;48.492;9.184;2023-02-23T17:47:36;12.10;99.90
1297;DHT22;641;48.492;9.184;2023-02-23T17:50:04;12.20;99.90
1297;DHT22;641;48.492;9.184;2023-02-23T17:52:30;12.20;99.90
1297;DHT22;641;48.492;9.184;2023-02-23T17:54:55;12.20;99.90
1297;DHT22;641;48.492;9.184;2023-02-23T17:57:25;12.00;99.90
1297;DHT22;641;48.492;9.184;2023-02-23T17:59:51;11.80;99.90
1297;DHT22;641;48.492;9.184;2023-02-23T18:02:18;11.70;99.90
1297;DHT22;641;48.492;9.184;2023-02-23T18:04:46;11.70;99.90
1297;DHT22;641;48.492;9.184;2023-02-23T18:07:12;11.60;99.90
1297;DHT22;641;48.492;9.184;2023-02-23T18:09:38;11.70;99.90
1297;DHT22;641;48.492;9.184;2023-02-23T18:12:04;11.80;99.90
1297;DHT22;641;48.492;9.184;2023-02-23T18:14:30;12.00;99.90
1297;DHT22;641;48.492;9.184;2023-02-23T18:16:56;12.10;99.90
1297;DHT22;641;48.492;9.184;2023-02-23T18:19:22;12.20;99.90
1297;DHT22;641;48.492;9.184;2023-02-23T18:21:48;12.30;99.90
1297;DHT22;641;48.492;9.184;2023-02-23T18:24:13;12.30;99.90
1297;DHT22;641;48.492;9.184;2023-02-23T18:26:39;12.30;99.90
1297;DHT22;641;48.492;9.184;2023-02-23T18:29:05;12.30;99.90
1297;DHT22;641;48.492;9.184;2023-02-23T18:31:32;12.20;99.90
1297;DHT22;641;48.492;9.184;2023-02-23T18:33:58;12.30;99.90
1297;DHT22;641;48.492;9.184;2023-02-23T18:36:28;12.30;99.90
1297;DHT22;641;48.492;9.184;2023-02-23T18:38:55;12.30;99.90
1297;DHT22;641;48.492;9.184;2023-02-23T18:41:22;12.20;99.90
1297;DHT22;641;48.492;9.184;2023-02-23T18:43:47;12.20;99.90
1297;DHT22;641;48.492;9.184;2023-02-23T18:46:14;12.20;99.90
1297;DHT22;641;48.492;9.184;2023-02-23T18:48:41;12.10;99.90
1297;DHT22;641;48.492;9.184;2023-02-23T18:51:07;12.20;99.90
1297;DHT22;641;48.492;9.184;2023-02-23T18:53:37;12.30;99.90
1297;DHT22;641;48.492;9.184;2023-02-23T18:56:07;12.10;99.90
1297;DHT22;641;48.492;9.184;2023-02-23T18:58:34;12.00;99.90
1297;DHT22;641;48.492;9.184;2023-02-23T19:00:59;11.90;99.90
1297;DHT22;641;48.492;9.184;2023-02-23T19:03:25;11.80;99.90
1297;DHT22;641;48.492;9.184;2023-02-23T19:05:51;11.80;99.90
1297;DHT22;641;48.492;9.184;2023-02-23T19:08:20;11.80;99.90
1297;DHT22;641;48.492;9.184;2023-02-23T19:10:46;11.80;99.90
1297;DHT22;641;48.492;9.184;2023-02-23T19:13:12;11.80;99.90
1297;DHT22;641;48.492;9.184;2023-02-23T19:15:38;11.60;99.90
1297;DHT22;641;48.492;9.184;2023-02-23T19:18:04;11.40;99.90
1297;DHT22;641;48.492;9.184;2023-02-23T19:20:30;11.20;99.90
1297;DHT22;641;48.492;9.184;2023-02-23T19:23:02;11.30;99.90
1297;DHT22;641;48.492;9.184;2023-02-23T19:25:28;11.40;99.90
1297;DHT22;641;48.492;9.184;2023-02-23T19:27:54;11.60;99.90
1297;DHT22;641;48.492;9.184;2023-02-23T19:30:20;11.70;99.90
1297;DHT22;641;48.492;9.184;2023-02-23T19:32:45;11.80;99.90
1297;DHT22;641;48.492;9.184;2023-02-23T19:35:12;11.70;99.90
1297;DHT22;641;48.492;9.184;2023-02-23T19:37:44;11.90;99.90
1297;DHT22;641;48.492;9.184;2023-02-23T19:40:13;11.80;99.90
1297;DHT22;641;48.492;9.184;2023-02-23T19:42:40;11.70;99.90
1297;DHT22;641;48.492;9.184;2023-02-23T19:45:11;11.60;99.90
1297;DHT22;641;48.492;9.184;2023-02-23T19:47:36;11.70;99.90
1297;DHT22;641;48.492;9.184;2023-02-23T19:50:02;11.70;99.90
1297;DHT22;641;48.492;9.184;2023-02-23T19:52:28;11.70;99.90
1297;DHT22;641;48.492;9.184;2023-02-23T19:54:55;11.60;99.90
1297;DHT22;641;48.492;9.184;2023-02-23T19:57:20;11.60;99.90
1297;DHT22;641;48.492;9.184;2023-02-23T19:59:46;11.60;99.90
1297;DHT22;641;48.492;9.184;2023-02-23T20:02:12;11.30;99.90
1297;DHT22;641;48.492;9.184;2023-02-23T20:04:37;11.10;99.90
1297;DHT22;641;48.492;9.184;2023-02-23T20:07:03;10.80;99.90
1297;DHT22;641;48.492;9.184;2023-02-23T20:09:28;10.40;99.90
1297;DHT22;641;48.492;9.184;2023-02-23T20:11:55;10.40;99.90
1297;DHT22;641;48.492;9.184;2023-02-23T20:14:20;10.40;99.90
1297;DHT22;641;48.492;9.184;2023-02-23T20:16:49;10.60;99.90
1297;DHT22;641;48.492;9.184;2023-02-23T20:19:15;10.40;99.90
1297;DHT22;641;48.492;9.184;2023-02-23T20:21:40;10.40;99.90
1297;DHT22;641;48.492;9.184;2023-02-23T20:24:06;10.40;99.90
1297;DHT22;641;48.492;9.184;2023-02-23T20:26:33;10.30;99.90
1297;DHT22;641;48.492;9.184;2023-02-23T20:29:00;10.10;99.90
1297;DHT22;641;48.492;9.184;2023-02-23T20:31:28;9.80;99.90
1297;DHT22;641;48.492;9.184;2023-02-23T20:33:55;9.60;99.90
1297;DHT22;641;48.492;9.184;2023-02-23T20:36:22;9.80;99.90
1297;DHT22;641;48.492;9.184;2023-02-23T20:38:48;9.90;99.90
1297;DHT22;641;48.492;9.184;2023-02-23T20:41:13;9.90;99.90
1297;DHT22;641;48.492;9.184;2023-02-23T20:43:39;9.70;99.90
1297;DHT22;641;48.492;9.184;2023-02-23T20:46:05;9.60;99.90
1297;DHT22;641;48.492;9.184;2023-02-23T20:48:32;9.70;99.90
1297;DHT22;641;48.492;9.184;2023-02-23T20:50:58;10.10;99.90
1297;DHT22;641;48.492;9.184;2023-02-23T20:53:25;9.80;99.90
1297;DHT22;641;48.492;9.184;2023-02-23T20:55:51;9.70;99.90
1297;DHT22;641;48.492;9.184;2023-02-23T20:58:17;9.70;99.90
1297;DHT22;641;48.492;9.184;2023-02-23T21:00:49;9.60;99.90
1297;DHT22;641;48.492;9.184;2023-02-23T21:03:15;9.60;99.90
1297;DHT22;641;48.492;9.184;2023-02-23T21:05:41;9.60;99.90
1297;DHT22;641;48.492;9.184;2023-02-23T21:08:08;9.70;99.90
1297;DHT22;641;48.492;9.184;2023-02-23T21:10:36;9.60;99.90
1297;DHT22;641;48.492;9.184;2023-02-23T21:13:03;9.40;99.90
1297;DHT22;641;48.492;9.184;2023-02-23T21:15:30;9.20;99.90
1297;DHT22;641;48.492;9.184;2023-02-23T21:17:56;9.20;99.90
1297;DHT22;641;48.492;9.184;2023-02-23T21:20:23;9.20;99.90
1297;DHT22;641;48.492;9.184;2023-02-23T21:22:49;9.30;99.90
1297;DHT22;641;48.492;9.184;2023-02-23T21:25:17;9.30;99.90
1297;DHT22;641;48.492;9.184;2023-02-23T21:27:44;9.40;99.90
1297;DHT22;641;48.492;9.184;2023-02-23T21:30:11;9.30;99.90
1297;DHT22;641;48.492;9.184;2023-02-23T21:32:41;9.40;99.90
1297;DHT22;641;48.492;9.184;2023-02-23T21:35:08;9.40;99.90
1297;DHT22;641;48.492;9.184;2023-02-23T21:37:35;9.40;99.90
1297;DHT22;641;48.492;9.184;2023-02-23T21:40:01;9.20;99.90
1297;DHT22;641;48.492;9.184;2023-02-23T21:42:26;9.30;99.90
1297;DHT22;641;48.492;9.184;2023-02-23T21:44:54;9.20;99.90
1297;DHT22;641;48.492;9.184;2023-02-23T21:47:20;9.30;99.90
1297;DHT22;641;48.492;9.184;2023-02-23T21:49:46;9.30;99.90
1297;DHT22;641;48.492;9.184;2023-02-23T21:52:16;9.00;99.90
1297;DHT22;641;48.492;9.184;2023-02-23T21:54:47;8.60;99.90
1297;DHT22;641;48.492;9.184;2023-02-23T21:57:14;8.70;99.90
1297;DHT22;641;48.492;9.184;2023-02-23T21:59:41;8.80;99.90
1297;DHT22;641;48.492;9.184;2023-02-23T22:02:11;8.90;99.90
1297;DHT22;641;48.492;9.184;2023-02-23T22:04:37;8.80;99.90
1297;DHT22;641;48.492;9.184;2023-02-23T22:07:03;8.70;99.90
1297;DHT22;641;48.492;9.184;2023-02-23T22:09:29;8.50;99.90
1297;DHT22;641;48.492;9.184;2023-02-23T22:11:56;8.40;99.90
1297;DHT22;641;48.492;9.184;2023-02-23T22:14:22;8.60;99.90
1297;DHT22;641;48.492;9.184;2023-02-23T22:16:48;8.80;99.90
1297;DHT22;641;48.492;9.184;2023-02-23T22:19:15;8.80;99.90
1297;DHT22;641;48.492;9.184;2023-02-23T22:21:42;8.80;99.90
1297;DHT22;641;48.492;9.184;2023-02-23T22:24:09;8.90;99.90
1297;DHT22;641;48.492;9.184;2023-02-23T22:26:37;8.90;99.90
1297;DHT22;641;48.492;9.184;2023-02-23T22:29:04;8.80;99.90
1297;DHT22;641;48.492;9.184;2023-02-23T22:31:31;8.70;99.90
1297;DHT22;641;48.492;9.184;2023-02-23T22:33:56;8.50;99.90
1297;DHT22;641;48.492;9.184;2023-02-23T22:36:22;8.50;99.90
1297;DHT22;641;48.492;9.184;2023-02-23T22:38:47;8.60;99.90
1297;DHT22;641;48.492;9.184;2023-02-23T22:41:13;8.50;99.90
1297;DHT22;641;48.492;9.184;2023-02-23T22:43:44;8.60;99.90
1297;DHT22;641;48.492;9.184;2023-02-23T22:46:14;8.80;99.90
1297;DHT22;641;48.492;9.184;2023-02-23T22:48:42;8.70;99.90
1297;DHT22;641;48.492;9.184;2023-02-23T22:51:11;8.40;99.90
1297;DHT22;641;48.492;9.184;2023-02-23T22:53:37;8.40;99.90
1297;DHT22;641;48.492;9.184;2023-02-23T22:56:03;8.50;99.90
1297;DHT22;641;48.492;9.184;2023-02-23T22:58:29;8.60;99.90
1297;DHT22;641;48.492;9.184;2023-02-23T23:00:55;8.80;99.90
1297;DHT22;641;48.492;9.184;2023-02-23T23:06:06;8.50;99.90
1297;DHT22;641;48.492;9.184;2023-02-23T23:08:34;8.30;99.90
1297;DHT22;641;48.492;9.184;2023-02-23T23:13:35;8.40;99.90
1297;DHT22;641;48.492;9.184;2023-02-23T23:16:02;8.50;99.90
1297;DHT22;641;48.492;9.184;2023-02-23T23:18:37;8.70;99.90
1297;DHT22;641;48.492;9.184;2023-02-23T23:21:02;8.70;99.90
1297;DHT22;641;48.492;9.184;2023-02-23T23:23:28;8.60;99.90
1297;DHT22;641;48.492;9.184;2023-02-23T23:25:53;8.60;99.90
1297;DHT22;641;48.492;9.184;2023-02-23T23:28:19;8.60;99.90
1297;DHT22;641;48.492;9.184;2023-02-23T23:30:49;8.80;99.90
1297;DHT22;641;48.492;9.184;2023-02-23T23:33:16;8.90;99.90
1297;DHT22;641;48.492;9.184;2023-02-23T23:35:43;8.80;99.90
1297;DHT22;641;48.492;9.184;2023-02-23T23:38:08;8.60;99.90
1297;DHT22;641;48.492;9.184;2023-02-23T23:40:34;8.60;99.90
1297;DHT22;641;48.492;9.184;2023-02-23T23:43:01;8.60;99.90
1297;DHT22;641;48.492;9.184;2023-02-23T23:45:30;8.60;99.90
1297;DHT22;641;48.492;9.184;2023-02-23T23:47:56;8.70;99.90
1297;DHT22;641;48.492;9.184;2023-02-23T23:50:21;8.60;99.90
1297;DHT22;641;48.492;9.184;2023-02-23T23:52:50;8.70;99.90
1297;DHT22;641;48.492;9.184;2023-02-23T23:55:16;8.90;99.90
1297;DHT22;641;48.492;9.184;2023-02-23T23:57:43;8.90;99.90
